sensor_id;sensor_type;location;lat;lon;timestamp;pressure;altitude;pressure_sealevel;temperature;humidity
74573;BME280;73017;50.810;4.428;2024-02-23T00:02:16;98431.13;;;20.79;48.78
74573;BME280;73017;50.810;4.428;2024-02-23T00:04:42;98487.19;;;21.05;48.65
74573;BME280;73017;50.810;4.428;2024-02-23T00:07:07;98484.19;;;21.03;48.58
74573;BME280;73017;50.810;4.428;2024-02-23T00:09:33;98494.13;;;20.99;47.82
74573;BME280;73017;50.810;4.428;2024-02-23T00:11:59;98504.25;;;21.04;47.91
74573;BME280;73017;50.810;4.428;2024-02-23T00:14:24;98468.91;;;20.87;48.02
74573;BME280;73017;50.810;4.428;2024-02-23T00:16:50;98485.53;;;20.91;47.55
74573;BME280;73017;50.810;4.428;2024-02-23T00:19:15;98499.72;;;21.05;48.11
74573;BME280;73017;50.810;4.428;2024-02-23T00:21:44;98494.63;;;20.90;47.66
74573;BME280;73017;50.810;4.428;2024-02-23T00:24:14;98511.47;;;21.04;47.71
74573;BME280;73017;50.810;4.428;2024-02-23T00:26:41;98514.97;;;21.00;47.39
74573;BME280;73017;50.810;4.428;2024-02-23T00:29:07;98517.97;;;21.03;48.19
74573;BME280;73017;50.810;4.428;2024-02-23T00:31:32;98486.81;;;20.83;47.41
74573;BME280;73017;50.810;4.428;2024-02-23T00:33:58;98502.69;;;20.87;47.17
74573;BME280;73017;50.810;4.428;2024-02-23T00:36:23;98504.53;;;20.90;47.47
74573;BME280;73017;50.810;4.428;2024-02-23T00:38:49;98517.59;;;20.80;47.83
74573;BME280;73017;50.810;4.428;2024-02-23T00:41:14;98531.56;;;20.85;47.78
74573;BME280;73017;50.810;4.428;2024-02-23T00:43:41;98554.44;;;20.98;47.66
74573;BME280;73017;50.810;4.428;2024-02-23T00:46:07;98554.03;;;21.00;47.61
74573;BME280;73017;50.810;4.428;2024-02-23T00:48:33;98536.44;;;20.86;48.01
74573;BME280;73017;50.810;4.428;2024-02-23T00:50:58;98557.84;;;20.99;47.36
74573;BME280;73017;50.810;4.428;2024-02-23T00:53:24;98543.56;;;20.93;47.38
74573;BME280;73017;50.810;4.428;2024-02-23T00:55:49;98554.44;;;20.98;47.16
74573;BME280;73017;50.810;4.428;2024-02-23T00:58:15;98559.00;;;20.98;47.72
74573;BME280;73017;50.810;4.428;2024-02-23T01:00:41;98530.78;;;20.84;47.30
74573;BME280;73017;50.810;4.428;2024-02-23T01:03:07;98556.34;;;20.98;47.61
74573;BME280;73017;50.810;4.428;2024-02-23T01:05:32;98553.63;;;21.01;47.72
74573;BME280;73017;50.810;4.428;2024-02-23T01:07:58;98556.63;;;21.04;47.62
74573;BME280;73017;50.810;4.428;2024-02-23T01:10:23;98533.78;;;20.86;47.38
74573;BME280;73017;50.810;4.428;2024-02-23T01:12:49;98564.59;;;21.04;47.15
74573;BME280;73017;50.810;4.428;2024-02-23T01:15:14;98559.28;;;21.04;47.27
74573;BME280;73017;50.810;4.428;2024-02-23T01:17:40;98540.25;;;20.85;47.38
74573;BME280;73017;50.810;4.428;2024-02-23T01:20:05;98553.63;;;21.01;47.46
74573;BME280;73017;50.810;4.428;2024-02-23T01:22:31;98553.28;;;20.99;46.59
74573;BME280;73017;50.810;4.428;2024-02-23T01:24:57;98566.56;;;20.99;47.45
74573;BME280;73017;50.810;4.428;2024-02-23T01:27:22;98561.31;;;20.96;46.87
74573;BME280;73017;50.810;4.428;2024-02-23T01:29:47;98553.41;;;20.92;46.40
74573;BME280;73017;50.810;4.428;2024-02-23T01:32:13;98570.31;;;21.02;47.08
74573;BME280;73017;50.810;4.428;2024-02-23T01:34:38;98561.94;;;21.04;46.51
74573;BME280;73017;50.810;4.428;2024-02-23T01:37:04;98564.59;;;21.04;46.38
74573;BME280;73017;50.810;4.428;2024-02-23T01:39:29;98560.91;;;20.97;46.74
74573;BME280;73017;50.810;4.428;2024-02-23T01:41:55;98552.16;;;21.00;47.10
74573;BME280;73017;50.810;4.428;2024-02-23T01:44:20;98531.97;;;20.83;46.16
74573;BME280;73017;50.810;4.428;2024-02-23T01:46:47;98530.44;;;20.82;46.13
74573;BME280;73017;50.810;4.428;2024-02-23T01:49:13;98542.19;;;20.85;46.53
74573;BME280;73017;50.810;4.428;2024-02-23T01:51:39;98545.22;;;20.83;46.83
74573;BME280;73017;50.810;4.428;2024-02-23T01:54:05;98546.72;;;20.84;46.89
74573;BME280;73017;50.810;4.428;2024-02-23T01:56:32;98563.28;;;20.92;46.36
74573;BME280;73017;50.810;4.428;2024-02-23T01:58:59;98549.38;;;20.84;46.43
74573;BME280;73017;50.810;4.428;2024-02-23T02:01:25;98537.38;;;20.76;46.66
74573;BME280;73017;50.810;4.428;2024-02-23T02:03:51;98561.50;;;20.85;46.18
74573;BME280;73017;50.810;4.428;2024-02-23T02:06:17;98549.38;;;20.84;46.69
74573;BME280;73017;50.810;4.428;2024-02-23T02:08:43;98529.91;;;20.71;46.26
74573;BME280;73017;50.810;4.428;2024-02-23T02:11:08;98540.47;;;20.74;46.79
74573;BME280;73017;50.810;4.428;2024-02-23T02:13:35;98560.69;;;20.88;46.06
74573;BME280;73017;50.810;4.428;2024-02-23T02:16:01;98553.47;;;20.89;46.58
74573;BME280;73017;50.810;4.428;2024-02-23T02:18:30;98550.50;;;20.87;46.27
74573;BME280;73017;50.810;4.428;2024-02-23T02:20:56;98542.78;;;20.72;46.73
74573;BME280;73017;50.810;4.428;2024-02-23T02:23:23;98567.22;;;20.84;46.04
74573;BME280;73017;50.810;4.428;2024-02-23T02:25:55;98546.16;;;20.73;46.45
74573;BME280;73017;50.810;4.428;2024-02-23T02:28:22;98575.53;;;20.86;46.93
74573;BME280;73017;50.810;4.428;2024-02-23T02:30:51;98541.31;;;20.68;46.77
74573;BME280;73017;50.810;4.428;2024-02-23T02:33:18;98560.34;;;20.86;46.66
74573;BME280;73017;50.810;4.428;2024-02-23T02:35:43;98563.53;;;20.77;46.79
74573;BME280;73017;50.810;4.428;2024-02-23T02:38:10;98557.00;;;20.82;46.65
74573;BME280;73017;50.810;4.428;2024-02-23T02:40:36;98477.16;;;20.26;46.81
74573;BME280;73017;50.810;4.428;2024-02-23T02:43:02;98563.13;;;20.79;46.38
74573;BME280;73017;50.810;4.428;2024-02-23T02:45:28;98551.41;;;20.76;46.04
74573;BME280;73017;50.810;4.428;2024-02-23T02:47:53;98557.88;;;20.75;45.83
74573;BME280;73017;50.810;4.428;2024-02-23T02:50:19;98527.44;;;20.56;45.94
74573;BME280;73017;50.810;4.428;2024-02-23T02:52:44;98554.88;;;20.73;46.59
74573;BME280;73017;50.810;4.428;2024-02-23T02:55:10;98550.72;;;20.72;46.61
74573;BME280;73017;50.810;4.428;2024-02-23T02:57:35;98548.06;;;20.72;45.80
74573;BME280;73017;50.810;4.428;2024-02-23T03:00:02;98549.28;;;20.68;46.11
74573;BME280;73017;50.810;4.428;2024-02-23T03:02:31;98546.28;;;20.66;46.08
74573;BME280;73017;50.810;4.428;2024-02-23T03:04:56;98552.63;;;20.72;46.25
74573;BME280;73017;50.810;4.428;2024-02-23T03:07:22;98545.81;;;20.71;46.57
74573;BME280;73017;50.810;4.428;2024-02-23T03:09:47;98542.81;;;20.69;46.60
74573;BME280;73017;50.810;4.428;2024-02-23T03:12:14;98530.69;;;20.68;46.16
74573;BME280;73017;50.810;4.428;2024-02-23T03:14:40;98525.91;;;20.59;46.32
74573;BME280;73017;50.810;4.428;2024-02-23T03:17:07;98507.06;;;20.50;46.17
74573;BME280;73017;50.810;4.428;2024-02-23T03:19:34;98538.19;;;20.73;45.62
74573;BME280;73017;50.810;4.428;2024-02-23T03:21:59;98522.38;;;20.66;45.80
74573;BME280;73017;50.810;4.428;2024-02-23T03:24:25;98531.38;;;20.72;45.86
74573;BME280;73017;50.810;4.428;2024-02-23T03:26:50;98531.47;;;20.68;45.67
74573;BME280;73017;50.810;4.428;2024-02-23T03:29:16;98518.31;;;20.57;46.30
74573;BME280;73017;50.810;4.428;2024-02-23T03:31:41;98534.84;;;20.69;45.93
74573;BME280;73017;50.810;4.428;2024-02-23T03:34:07;98499.06;;;20.53;45.91
74573;BME280;73017;50.810;4.428;2024-02-23T03:36:33;98499.09;;;20.50;45.65
74573;BME280;73017;50.810;4.428;2024-02-23T03:39:00;98512.25;;;20.60;46.31
74573;BME280;73017;50.810;4.428;2024-02-23T03:41:25;98503.28;;;20.51;46.34
74573;BME280;73017;50.810;4.428;2024-02-23T03:43:51;98512.59;;;20.63;46.32
74573;BME280;73017;50.810;4.428;2024-02-23T03:46:16;98502.78;;;20.59;45.94
74573;BME280;73017;50.810;4.428;2024-02-23T03:48:44;98487.00;;;20.49;46.04
74573;BME280;73017;50.810;4.428;2024-02-23T03:51:10;98507.63;;;20.65;45.82
74573;BME280;73017;50.810;4.428;2024-02-23T03:53:35;98501.75;;;20.50;45.52
74573;BME280;73017;50.810;4.428;2024-02-23T03:56:01;98489.72;;;20.45;45.97
74573;BME280;73017;50.810;4.428;2024-02-23T03:58:26;98481.00;;;20.45;45.96
74573;BME280;73017;50.810;4.428;2024-02-23T04:00:52;98492.72;;;20.47;45.71
74573;BME280;73017;50.810;4.428;2024-02-23T04:03:17;98508.06;;;20.59;45.75
74573;BME280;73017;50.810;4.428;2024-02-23T04:05:43;98508.03;;;20.63;46.01
74573;BME280;73017;50.810;4.428;2024-02-23T04:08:08;98520.50;;;20.66;45.17
74573;BME280;73017;50.810;4.428;2024-02-23T04:10:34;98490.41;;;20.49;45.39
74573;BME280;73017;50.810;4.428;2024-02-23T04:13:00;98503.97;;;20.55;45.56
74573;BME280;73017;50.810;4.428;2024-02-23T04:15:26;98511.41;;;20.64;45.38
74573;BME280;73017;50.810;4.428;2024-02-23T04:17:52;98515.44;;;20.72;45.03
74573;BME280;73017;50.810;4.428;2024-02-23T04:20:17;98521.53;;;20.72;45.75
74573;BME280;73017;50.810;4.428;2024-02-23T04:22:43;98495.66;;;20.53;45.01
74573;BME280;73017;50.810;4.428;2024-02-23T04:25:09;98512.59;;;20.63;45.46
74573;BME280;73017;50.810;4.428;2024-02-23T04:27:34;98516.13;;;20.76;45.51
74573;BME280;73017;50.810;4.428;2024-02-23T04:30:00;98502.13;;;20.75;45.47
74573;BME280;73017;50.810;4.428;2024-02-23T04:32:25;98506.69;;;20.75;44.90
74573;BME280;73017;50.810;4.428;2024-02-23T04:34:51;98508.19;;;20.76;45.35
74573;BME280;73017;50.810;4.428;2024-02-23T04:37:16;98507.09;;;20.73;44.68
74573;BME280;73017;50.810;4.428;2024-02-23T04:39:43;98486.84;;;20.59;45.14
74573;BME280;73017;50.810;4.428;2024-02-23T04:42:09;98492.94;;;20.60;44.74
74573;BME280;73017;50.810;4.428;2024-02-23T04:44:35;98487.66;;;20.56;45.08
74573;BME280;73017;50.810;4.428;2024-02-23T04:47:01;98493.19;;;20.66;44.91
74573;BME280;73017;50.810;4.428;2024-02-23T04:49:26;98517.25;;;20.78;44.90
74573;BME280;73017;50.810;4.428;2024-02-23T04:51:52;98476.56;;;20.61;44.85
74573;BME280;73017;50.810;4.428;2024-02-23T04:54:18;98491.31;;;20.66;44.81
74573;BME280;73017;50.810;4.428;2024-02-23T04:56:43;98473.88;;;20.65;44.57
74573;BME280;73017;50.810;4.428;2024-02-23T04:59:08;98475.78;;;20.65;44.75
74573;BME280;73017;50.810;4.428;2024-02-23T05:01:37;98471.56;;;20.67;44.83
74573;BME280;73017;50.810;4.428;2024-02-23T05:04:03;98508.06;;;20.83;44.71
74573;BME280;73017;50.810;4.428;2024-02-23T05:06:31;98492.78;;;20.67;44.84
74573;BME280;73017;50.810;4.428;2024-02-23T05:08:57;98484.38;;;20.72;44.84
74573;BME280;73017;50.810;4.428;2024-02-23T05:11:22;98505.75;;;20.85;44.31
74573;BME280;73017;50.810;4.428;2024-02-23T05:13:48;98500.44;;;20.85;44.96
74573;BME280;73017;50.810;4.428;2024-02-23T05:16:14;98506.09;;;20.87;44.33
74573;BME280;73017;50.810;4.428;2024-02-23T05:18:40;98472.63;;;20.70;44.31
74573;BME280;73017;50.810;4.428;2024-02-23T05:21:06;98473.47;;;20.67;44.77
74573;BME280;73017;50.810;4.428;2024-02-23T05:23:32;98477.59;;;20.68;45.01
74573;BME280;73017;50.810;4.428;2024-02-23T05:25:58;98476.13;;;20.67;44.41
74573;BME280;73017;50.810;4.428;2024-02-23T05:28:23;98504.56;;;20.86;44.88
74573;BME280;73017;50.810;4.428;2024-02-23T05:30:49;98483.69;;;20.68;44.58
74573;BME280;73017;50.810;4.428;2024-02-23T05:33:14;98422.94;;;20.27;44.50
74573;BME280;73017;50.810;4.428;2024-02-23T05:35:40;98465.97;;;20.61;44.61
74573;BME280;73017;50.810;4.428;2024-02-23T05:38:05;98477.16;;;20.73;44.88
74573;BME280;73017;50.810;4.428;2024-02-23T05:40:32;98480.16;;;20.75;44.09
74573;BME280;73017;50.810;4.428;2024-02-23T05:42:58;98474.09;;;20.74;44.29
74573;BME280;73017;50.810;4.428;2024-02-23T05:45:24;98483.53;;;20.75;44.06
74573;BME280;73017;50.810;4.428;2024-02-23T05:47:49;98496.63;;;20.86;44.21
74573;BME280;73017;50.810;4.428;2024-02-23T05:50:15;98491.03;;;20.80;44.86
74573;BME280;73017;50.810;4.428;2024-02-23T05:52:40;98490.16;;;20.87;44.74
74573;BME280;73017;50.810;4.428;2024-02-23T05:55:06;98495.53;;;20.84;44.20
74573;BME280;73017;50.810;4.428;2024-02-23T05:57:32;98491.78;;;20.81;44.07
74573;BME280;73017;50.810;4.428;2024-02-23T05:59:57;98482.66;;;20.82;44.21
74573;BME280;73017;50.810;4.428;2024-02-23T06:02:23;98477.34;;;20.82;44.50
74573;BME280;73017;50.810;4.428;2024-02-23T06:04:49;98469.91;;;20.73;44.02
74573;BME280;73017;50.810;4.428;2024-02-23T06:07:15;98466.03;;;20.78;44.50
74573;BME280;73017;50.810;4.428;2024-02-23T06:09:45;98469.31;;;20.86;44.44
74573;BME280;73017;50.810;4.428;2024-02-23T06:12:11;98463.72;;;20.80;43.82
74573;BME280;73017;50.810;4.428;2024-02-23T06:14:36;98455.56;;;20.71;44.62
74573;BME280;73017;50.810;4.428;2024-02-23T06:17:02;98444.94;;;20.71;44.06
74573;BME280;73017;50.810;4.428;2024-02-23T06:19:28;98431.69;;;20.71;44.27
74573;BME280;73017;50.810;4.428;2024-02-23T06:21:54;98462.19;;;20.83;43.92
74573;BME280;73017;50.810;4.428;2024-02-23T06:24:19;98439.63;;;20.71;43.73
74573;BME280;73017;50.810;4.428;2024-02-23T06:26:45;98459.44;;;20.86;44.42
74573;BME280;73017;50.810;4.428;2024-02-23T06:29:11;98436.25;;;20.70;44.02
74573;BME280;73017;50.810;4.428;2024-02-23T06:31:38;98470.41;;;20.88;44.04
74573;BME280;73017;50.810;4.428;2024-02-23T06:34:05;98457.91;;;20.89;43.96
74573;BME280;73017;50.810;4.428;2024-02-23T06:36:30;98462.44;;;20.88;43.77
74573;BME280;73017;50.810;4.428;2024-02-23T06:38:56;98471.50;;;20.91;43.66
74573;BME280;73017;50.810;4.428;2024-02-23T06:41:22;98405.63;;;20.42;44.42
74573;BME280;73017;50.810;4.428;2024-02-23T06:43:47;98449.44;;;20.74;43.57
74573;BME280;73017;50.810;4.428;2024-02-23T06:46:13;98446.78;;;20.74;44.05
74573;BME280;73017;50.810;4.428;2024-02-23T06:48:39;98442.16;;;20.78;43.87
74573;BME280;73017;50.810;4.428;2024-02-23T06:51:05;98450.19;;;20.74;44.34
74573;BME280;73017;50.810;4.428;2024-02-23T06:53:34;98469.25;;;20.89;43.99
74573;BME280;73017;50.810;4.428;2024-02-23T06:56:00;98471.97;;;20.86;44.28
74573;BME280;73017;50.810;4.428;2024-02-23T06:58:26;98485.53;;;20.91;44.32
74573;BME280;73017;50.810;4.428;2024-02-23T07:00:52;98462.69;;;20.74;43.67
74573;BME280;73017;50.810;4.428;2024-02-23T07:03:17;98482.13;;;20.91;43.75
74573;BME280;73017;50.810;4.428;2024-02-23T07:05:43;98490.16;;;20.87;43.88
74573;BME280;73017;50.810;4.428;2024-02-23T07:08:10;98468.34;;;20.76;43.55
74573;BME280;73017;50.810;4.428;2024-02-23T07:10:36;98462.94;;;20.83;43.74
74573;BME280;73017;50.810;4.428;2024-02-23T07:13:01;98484.22;;;20.79;43.65
74573;BME280;73017;50.810;4.428;2024-02-23T07:15:27;98487.78;;;20.93;43.51
74573;BME280;73017;50.810;4.428;2024-02-23T07:17:52;98482.53;;;20.89;43.85
74573;BME280;73017;50.810;4.428;2024-02-23T07:20:18;98497.25;;;20.94;43.80
74573;BME280;73017;50.810;4.428;2024-02-23T07:22:45;98492.47;;;20.85;43.75
74573;BME280;73017;50.810;4.428;2024-02-23T07:25:11;98488.53;;;20.93;44.18
74573;BME280;73017;50.810;4.428;2024-02-23T07:27:36;98469.38;;;20.82;44.05
74573;BME280;73017;50.810;4.428;2024-02-23T07:30:02;98479.66;;;20.80;43.30
74573;BME280;73017;50.810;4.428;2024-02-23T07:32:29;98494.13;;;20.99;43.86
74573;BME280;73017;50.810;4.428;2024-02-23T07:34:55;98498.13;;;20.87;44.09
74573;BME280;73017;50.810;4.428;2024-02-23T07:37:20;98486.16;;;20.99;43.87
74573;BME280;73017;50.810;4.428;2024-02-23T07:39:46;98463.25;;;20.85;43.63
74573;BME280;73017;50.810;4.428;2024-02-23T07:42:12;98457.28;;;20.81;43.41
74573;BME280;73017;50.810;4.428;2024-02-23T07:44:40;98410.00;;;20.52;43.55
74573;BME280;73017;50.810;4.428;2024-02-23T07:47:05;98464.56;;;20.97;43.95
74573;BME280;73017;50.810;4.428;2024-02-23T07:49:31;98460.59;;;20.85;43.71
74573;BME280;73017;50.810;4.428;2024-02-23T07:51:56;98480.78;;;21.03;43.02
74573;BME280;73017;50.810;4.428;2024-02-23T07:54:22;98482.31;;;21.00;43.87
74573;BME280;73017;50.810;4.428;2024-02-23T07:56:47;98482.31;;;21.00;43.95
74573;BME280;73017;50.810;4.428;2024-02-23T07:59:13;98490.63;;;21.02;43.02
74573;BME280;73017;50.810;4.428;2024-02-23T08:01:38;98457.63;;;20.83;43.11
74573;BME280;73017;50.810;4.428;2024-02-23T08:04:05;98478.25;;;20.95;43.08
74573;BME280;73017;50.810;4.428;2024-02-23T08:06:31;98437.19;;;20.80;43.17
74573;BME280;73017;50.810;4.428;2024-02-23T08:08:56;98469.44;;;20.98;43.87
74573;BME280;73017;50.810;4.428;2024-02-23T08:11:22;98480.06;;;20.98;43.18
74573;BME280;73017;50.810;4.428;2024-02-23T08:13:47;98454.56;;;20.85;43.04
74573;BME280;73017;50.810;4.428;2024-02-23T08:16:13;98487.22;;;21.01;43.77
74573;BME280;73017;50.810;4.428;2024-02-23T08:18:40;98477.56;;;20.91;43.36
74573;BME280;73017;50.810;4.428;2024-02-23T08:21:06;98480.84;;;20.99;43.19
74573;BME280;73017;50.810;4.428;2024-02-23T08:23:32;98479.53;;;20.87;43.60
74573;BME280;73017;50.810;4.428;2024-02-23T08:25:58;98493.97;;;21.06;43.21
74573;BME280;73017;50.810;4.428;2024-02-23T08:28:24;98511.75;;;21.09;43.01
74573;BME280;73017;50.810;4.428;2024-02-23T08:30:49;98508.03;;;21.07;43.85
74573;BME280;73017;50.810;4.428;2024-02-23T08:33:15;98473.69;;;20.96;42.94
74573;BME280;73017;50.810;4.428;2024-02-23T08:35:40;98508.03;;;21.07;43.06
74573;BME280;73017;50.810;4.428;2024-02-23T08:38:06;98480.22;;;20.91;43.33
74573;BME280;73017;50.810;4.428;2024-02-23T08:40:32;98487.16;;;20.85;43.66
74573;BME280;73017;50.810;4.428;2024-02-23T08:42:57;98507.81;;;20.97;43.87
74573;BME280;73017;50.810;4.428;2024-02-23T08:45:23;98511.53;;;21.00;44.96
74573;BME280;73017;50.810;4.428;2024-02-23T08:47:49;98490.63;;;20.82;45.22
74573;BME280;73017;50.810;4.428;2024-02-23T08:50:14;98491.72;;;20.85;45.10
74573;BME280;73017;50.810;4.428;2024-02-23T08:52:40;98491.78;;;20.81;45.65
74573;BME280;73017;50.810;4.428;2024-02-23T08:55:05;98521.88;;;20.94;45.79
74573;BME280;73017;50.810;4.428;2024-02-23T08:57:31;98491.91;;;20.74;45.77
74573;BME280;73017;50.810;4.428;2024-02-23T08:59:56;98492.34;;;20.72;46.15
74573;BME280;73017;50.810;4.428;2024-02-23T09:02:23;98497.16;;;20.77;46.04
74573;BME280;73017;50.810;4.428;2024-02-23T09:04:49;98522.69;;;20.91;46.54
74573;BME280;73017;50.810;4.428;2024-02-23T09:07:14;98517.06;;;20.89;45.82
74573;BME280;73017;50.810;4.428;2024-02-23T09:09:40;98494.16;;;20.75;46.25
74573;BME280;73017;50.810;4.428;2024-02-23T09:12:06;98500.16;;;20.79;45.79
74573;BME280;73017;50.810;4.428;2024-02-23T09:14:32;98519.03;;;20.85;46.55
74573;BME280;73017;50.810;4.428;2024-02-23T09:17:00;98515.13;;;20.90;46.38
74573;BME280;73017;50.810;4.428;2024-02-23T09:19:26;98516.03;;;20.83;45.76
74573;BME280;73017;50.810;4.428;2024-02-23T09:21:51;98500.97;;;20.76;45.95
74573;BME280;73017;50.810;4.428;2024-02-23T09:24:16;98532.50;;;20.94;45.86
74573;BME280;73017;50.810;4.428;2024-02-23T09:26:46;98501.38;;;20.75;46.33
74573;BME280;73017;50.810;4.428;2024-02-23T09:29:12;98513.47;;;20.76;46.26
74573;BME280;73017;50.810;4.428;2024-02-23T09:31:37;98516.81;;;20.80;45.77
74573;BME280;73017;50.810;4.428;2024-02-23T09:34:03;98516.72;;;20.87;45.96
74573;BME280;73017;50.810;4.428;2024-02-23T09:36:28;98534.41;;;20.94;45.43
74573;BME280;73017;50.810;4.428;2024-02-23T09:38:55;98512.00;;;20.75;45.62
74573;BME280;73017;50.810;4.428;2024-02-23T09:41:22;98531.00;;;20.93;45.71
74573;BME280;73017;50.810;4.428;2024-02-23T09:43:49;98530.28;;;20.93;45.44
74573;BME280;73017;50.810;4.428;2024-02-23T09:46:16;98527.63;;;20.93;45.26
74573;BME280;73017;50.810;4.428;2024-02-23T09:48:45;98523.25;;;20.83;45.90
74573;BME280;73017;50.810;4.428;2024-02-23T09:51:15;98543.81;;;20.98;45.36
74573;BME280;73017;50.810;4.428;2024-02-23T09:53:42;98520.25;;;20.80;45.52
74573;BME280;73017;50.810;4.428;2024-02-23T09:56:09;98543.47;;;20.96;45.64
74573;BME280;73017;50.810;4.428;2024-02-23T09:58:39;98546.84;;;21.00;45.12
74573;BME280;73017;50.810;4.428;2024-02-23T10:01:07;98550.97;;;21.01;45.16
74573;BME280;73017;50.810;4.428;2024-02-23T10:03:32;98562.41;;;20.98;45.56
74573;BME280;73017;50.810;4.428;2024-02-23T10:05:59;98543.72;;;20.82;45.79
74573;BME280;73017;50.810;4.428;2024-02-23T10:08:28;98553.81;;;20.91;45.39
74573;BME280;73017;50.810;4.428;2024-02-23T10:10:54;98550.94;;;20.81;45.08
74573;BME280;73017;50.810;4.428;2024-02-23T10:13:20;98557.69;;;20.86;45.18
74573;BME280;73017;50.810;4.428;2024-02-23T10:15:53;98571.19;;;20.95;45.03
74573;BME280;73017;50.810;4.428;2024-02-23T10:18:19;98568.53;;;20.95;44.92
74573;BME280;73017;50.810;4.428;2024-02-23T10:20:45;98575.34;;;20.96;45.20
74573;BME280;73017;50.810;4.428;2024-02-23T10:23:11;98572.75;;;20.93;45.13
74573;BME280;73017;50.810;4.428;2024-02-23T10:25:37;98559.31;;;20.80;45.28
74573;BME280;73017;50.810;4.428;2024-02-23T10:28:04;98583.78;;;20.91;44.90
74573;BME280;73017;50.810;4.428;2024-02-23T10:30:30;98575.88;;;20.88;45.41
74573;BME280;73017;50.810;4.428;2024-02-23T10:32:57;98564.69;;;20.76;45.05
74573;BME280;73017;50.810;4.428;2024-02-23T10:35:24;98590.19;;;20.94;45.30
74573;BME280;73017;50.810;4.428;2024-02-23T10:37:51;98562.72;;;20.80;45.50
74573;BME280;73017;50.810;4.428;2024-02-23T10:40:19;98578.06;;;20.93;45.56
74573;BME280;73017;50.810;4.428;2024-02-23T10:42:46;98579.16;;;20.95;45.24
74573;BME280;73017;50.810;4.428;2024-02-23T10:45:21;98561.50;;;20.85;45.50
74573;BME280;73017;50.810;4.428;2024-02-23T10:47:51;98576.91;;;20.94;45.12
74573;BME280;73017;50.810;4.428;2024-02-23T10:50:18;98588.56;;;21.00;45.08
74573;BME280;73017;50.810;4.428;2024-02-23T10:52:45;98587.81;;;20.99;44.91
74573;BME280;73017;50.810;4.428;2024-02-23T10:55:12;98567.63;;;20.82;45.09
74573;BME280;73017;50.810;4.428;2024-02-23T10:57:37;98598.78;;;21.01;44.71
74573;BME280;73017;50.810;4.428;2024-02-23T11:00:05;98582.50;;;20.99;44.93
74573;BME280;73017;50.810;4.428;2024-02-23T11:02:50;98573.28;;;20.84;44.84
74573;BME280;73017;50.810;4.428;2024-02-23T11:05:18;98593.19;;;20.96;44.95
74573;BME280;73017;50.810;4.428;2024-02-23T11:07:47;98586.38;;;20.95;45.15
74573;BME280;73017;50.810;4.428;2024-02-23T11:10:15;98572.13;;;20.85;44.71
74573;BME280;73017;50.810;4.428;2024-02-23T11:12:41;98586.31;;;20.98;45.01
74573;BME280;73017;50.810;4.428;2024-02-23T11:15:07;98576.91;;;20.94;44.69
74573;BME280;73017;50.810;4.428;2024-02-23T11:17:35;98568.66;;;20.88;44.76
74573;BME280;73017;50.810;4.428;2024-02-23T11:20:03;98572.13;;;20.85;44.31
74573;BME280;73017;50.810;4.428;2024-02-23T11:22:33;98591.59;;;20.98;44.75
74573;BME280;73017;50.810;4.428;2024-02-23T11:25:07;98567.28;;;20.80;44.36
74573;BME280;73017;50.810;4.428;2024-02-23T11:27:38;98570.28;;;20.82;44.12
74573;BME280;73017;50.810;4.428;2024-02-23T11:30:09;98587.13;;;20.95;44.71
74573;BME280;73017;50.810;4.428;2024-02-23T11:32:40;98559.31;;;20.80;45.02
74573;BME280;73017;50.810;4.428;2024-02-23T11:35:07;98552.09;;;20.80;44.22
74573;BME280;73017;50.810;4.428;2024-02-23T11:37:53;98582.50;;;20.99;44.24
74573;BME280;73017;50.810;4.428;2024-02-23T11:40:32;98559.31;;;20.80;44.35
74573;BME280;73017;50.810;4.428;2024-02-23T11:42:58;98571.19;;;20.95;44.62
74573;BME280;73017;50.810;4.428;2024-02-23T11:45:30;98586.25;;;21.02;44.19
74573;BME280;73017;50.810;4.428;2024-02-23T11:47:56;98581.81;;;20.95;44.41
74573;BME280;73017;50.810;4.428;2024-02-23T11:50:21;98578.75;;;20.97;44.50
74573;BME280;73017;50.810;4.428;2024-02-23T11:52:47;98582.09;;;21.01;44.28
74573;BME280;73017;50.810;4.428;2024-02-23T11:55:19;98586.66;;;21.00;44.89
74573;BME280;73017;50.810;4.428;2024-02-23T11:57:48;98591.56;;;21.02;44.56
74573;BME280;73017;50.810;4.428;2024-02-23T12:00:13;98589.31;;;21.00;44.74
74573;BME280;73017;50.810;4.428;2024-02-23T12:02:39;98569.81;;;20.87;43.97
74573;BME280;73017;50.810;4.428;2024-02-23T12:05:04;98563.41;;;20.85;44.40
74573;BME280;73017;50.810;4.428;2024-02-23T12:07:31;98582.91;;;20.98;44.79
74573;BME280;73017;50.810;4.428;2024-02-23T12:09:57;98565.06;;;20.98;43.99
74573;BME280;73017;50.810;4.428;2024-02-23T12:12:26;98557.75;;;20.83;44.52
74573;BME280;73017;50.810;4.428;2024-02-23T12:14:53;98571.53;;;20.97;44.54
74573;BME280;73017;50.810;4.428;2024-02-23T12:17:18;98564.16;;;20.85;44.46
74573;BME280;73017;50.810;4.428;2024-02-23T12:19:44;98580.53;;;21.04;44.61
74573;BME280;73017;50.810;4.428;2024-02-23T12:22:12;98572.56;;;21.04;44.24
74573;BME280;73017;50.810;4.428;2024-02-23T12:24:40;98607.44;;;21.06;44.50
74573;BME280;73017;50.810;4.428;2024-02-23T12:27:07;98578.56;;;21.08;44.17
74573;BME280;73017;50.810;4.428;2024-02-23T12:29:32;98572.22;;;21.01;43.69
74573;BME280;73017;50.810;4.428;2024-02-23T12:32:07;98572.84;;;21.09;43.82
74573;BME280;73017;50.810;4.428;2024-02-23T12:34:34;98575.91;;;21.08;44.23
74573;BME280;73017;50.810;4.428;2024-02-23T12:37:02;98577.75;;;21.11;43.73
74573;BME280;73017;50.810;4.428;2024-02-23T12:39:27;98545.78;;;20.94;43.83
74573;BME280;73017;50.810;4.428;2024-02-23T12:41:53;98582.19;;;21.17;43.45
74573;BME280;73017;50.810;4.428;2024-02-23T12:44:18;98581.22;;;21.08;43.71
74573;BME280;73017;50.810;4.428;2024-02-23T12:46:44;98555.47;;;21.05;43.58
74573;BME280;73017;50.810;4.428;2024-02-23T12:49:09;98581.03;;;21.18;44.22
74573;BME280;73017;50.810;4.428;2024-02-23T12:51:35;98578.34;;;21.18;44.18
74573;BME280;73017;50.810;4.428;2024-02-23T12:54:00;98576.47;;;21.19;43.62
74573;BME280;73017;50.810;4.428;2024-02-23T12:56:26;98578.44;;;21.15;43.60